createdAt,value
2017-10-11T00:00:11.239Z,3.75
2017-10-11T00:02:45.166Z,4.07
2017-10-11T00:05:19.996Z,5.40
2017-10-11T00:07:54.854Z,2.85
2017-10-11T00:10:28.752Z,2.90
2017-10-11T00:13:03.592Z,4.07
2017-10-11T00:15:38.474Z,5.28
2017-10-11T00:18:13.688Z,5.25
2017-10-11T00:20:47.708Z,3.40
2017-10-11T00:23:22.015Z,3.30
2017-10-11T00:25:55.763Z,3.65
2017-10-11T00:28:30.861Z,4.90
2017-10-11T00:31:05.533Z,3.97
2017-10-11T00:33:39.604Z,4.05
2017-10-11T00:36:13.492Z,8.32
2017-10-11T00:38:47.450Z,8.30
2017-10-11T00:41:21.538Z,5.18
2017-10-11T00:43:55.632Z,4.87
2017-10-11T00:46:29.634Z,8.13
2017-10-11T00:49:03.779Z,2.55
2017-10-11T00:51:37.749Z,3.47
2017-10-11T00:54:11.728Z,3.70
2017-10-11T00:56:47.410Z,4.53
2017-10-11T00:59:21.669Z,5.97
2017-10-11T01:01:55.498Z,8.15
2017-10-11T01:04:30.900Z,10.40
2017-10-11T01:07:05.067Z,4.75
2017-10-11T01:09:40.269Z,8.25
2017-10-11T01:12:14.534Z,8.23
2017-10-11T01:14:48.786Z,10.90
2017-10-11T01:17:24.024Z,6.75
2017-10-11T01:19:58.725Z,3.67
2017-10-11T01:22:33.305Z,10.43
2017-10-11T01:25:07.487Z,11.73
2017-10-11T01:27:41.955Z,10.05
2017-10-11T01:30:16.697Z,4.57
2017-10-11T01:32:50.940Z,12.43
2017-10-11T01:35:25.120Z,76.47
2017-10-11T01:37:59.067Z,5.93
2017-10-11T01:40:33.266Z,3.55
2017-10-11T01:43:07.616Z,3.83
2017-10-11T01:45:42.279Z,6.35
2017-10-11T01:48:16.746Z,8.88
2017-10-11T01:50:53.692Z,15.25
2017-10-11T01:53:27.437Z,6.60
2017-10-11T01:56:02.066Z,7.15
2017-10-11T01:58:36.063Z,53.28
2017-10-11T02:01:10.061Z,16.35
2017-10-11T02:03:44.492Z,11.63
2017-10-11T02:06:18.820Z,24.20
2017-10-11T02:08:52.837Z,10.80
2017-10-11T02:11:27.122Z,16.05
2017-10-11T02:14:01.007Z,35.67
2017-10-11T02:16:35.816Z,36.80
2017-10-11T02:19:09.649Z,27.33
2017-10-11T02:21:44.310Z,7.03
2017-10-11T02:24:18.398Z,12.20
2017-10-11T02:26:52.546Z,9.45
2017-10-11T02:29:26.732Z,1.37
2017-10-11T02:32:01.441Z,3.35
2017-10-11T02:34:36.155Z,9.38
2017-10-11T02:37:10.396Z,2.72
2017-10-11T02:39:44.160Z,2.28
2017-10-11T02:42:18.424Z,2.40
2017-10-11T02:44:53.128Z,1.98
2017-10-11T02:47:27.265Z,2.80
2017-10-11T02:50:01.728Z,4.72
2017-10-11T02:52:36.435Z,2.47
2017-10-11T02:55:11.046Z,5.00
2017-10-11T02:57:45.161Z,4.15
2017-10-11T03:00:19.121Z,2.25
2017-10-11T03:02:53.276Z,1.80
2017-10-11T03:05:28.086Z,2.03
2017-10-11T03:08:02.287Z,2.05
2017-10-11T03:10:36.503Z,3.95
2017-10-11T03:13:10.735Z,4.78
2017-10-11T03:15:44.868Z,3.45
2017-10-11T03:18:19.770Z,4.22
2017-10-11T03:20:53.894Z,2.85
2017-10-11T03:23:28.835Z,4.68
2017-10-11T03:26:03.625Z,2.50
2017-10-11T03:28:37.941Z,2.25
2017-10-11T03:31:11.963Z,6.40
2017-10-11T03:33:45.842Z,2.53
2017-10-11T03:36:20.432Z,3.62
2017-10-11T03:38:55.275Z,4.90
2017-10-11T03:41:29.362Z,7.28
2017-10-11T03:44:05.376Z,5.53
2017-10-11T03:46:40.545Z,7.72
2017-10-11T03:49:14.370Z,8.60
2017-10-11T03:51:49.082Z,49.80
2017-10-11T03:54:23.465Z,32.35
2017-10-11T03:56:58.028Z,5.43
2017-10-11T03:59:31.797Z,17.70
2017-10-11T04:02:05.639Z,8.10
2017-10-11T04:04:39.398Z,4.70
2017-10-11T04:07:13.238Z,12.63
2017-10-11T04:09:46.904Z,15.27
2017-10-11T04:12:21.494Z,7.03
2017-10-11T04:14:55.281Z,12.32
2017-10-11T04:17:29.171Z,13.65
2017-10-11T04:20:02.946Z,21.15
2017-10-11T04:22:36.805Z,16.87
2017-10-11T04:25:11.015Z,19.77
2017-10-11T04:27:45.023Z,13.32
2017-10-11T04:30:18.910Z,13.52
2017-10-11T04:32:52.871Z,21.33
2017-10-11T04:35:26.745Z,23.17
2017-10-11T04:38:00.507Z,8.60
2017-10-11T04:40:34.432Z,10.05
2017-10-11T04:43:08.561Z,12.43
2017-10-11T04:45:42.338Z,29.75
2017-10-11T04:48:17.038Z,13.18
2017-10-11T04:50:51.050Z,48.80
2017-10-11T04:53:24.866Z,20.00
2017-10-11T04:55:58.827Z,16.05
2017-10-11T04:58:32.890Z,25.60
2017-10-11T05:01:07.597Z,38.22
2017-10-11T05:03:41.447Z,14.73
2017-10-11T05:06:15.471Z,41.67
2017-10-11T05:08:49.261Z,31.25
2017-10-11T05:11:23.029Z,42.17
2017-10-11T05:13:56.904Z,28.12
2017-10-11T05:16:30.862Z,40.67
2017-10-11T05:19:04.820Z,36.97
2017-10-11T05:21:38.627Z,57.83
2017-10-11T05:24:13.068Z,15.60
2017-10-11T05:26:47.273Z,26.58
2017-10-11T05:29:22.939Z,29.37
2017-10-11T05:31:56.983Z,19.40
2017-10-11T05:34:31.865Z,26.30
2017-10-11T05:37:05.895Z,52.40
2017-10-11T05:39:39.810Z,46.72
2017-10-11T05:42:14.390Z,15.00
2017-10-11T05:44:50.096Z,27.52
2017-10-11T05:47:24.405Z,28.87
2017-10-11T05:49:58.408Z,10.20
2017-10-11T05:52:33.097Z,27.90
2017-10-11T05:55:07.081Z,29.75
2017-10-11T05:57:40.919Z,35.97
2017-10-11T06:00:16.300Z,20.80
2017-10-11T06:02:51.596Z,22.60
2017-10-11T06:05:25.540Z,44.10
2017-10-11T06:07:59.617Z,40.58
2017-10-11T06:10:33.870Z,25.58
2017-10-11T06:13:07.725Z,59.35
2017-10-11T06:15:42.521Z,43.65
2017-10-11T06:18:19.424Z,37.10
2017-10-11T06:20:55.826Z,48.60
2017-10-11T06:23:29.792Z,78.70
2017-10-11T06:26:03.627Z,17.17
2017-10-11T06:28:37.556Z,26.98
2017-10-11T06:31:12.185Z,48.90
2017-10-11T06:33:46.200Z,25.33
2017-10-11T06:36:20.301Z,70.57
2017-10-11T06:38:54.770Z,48.85
2017-10-11T06:41:28.804Z,29.77
2017-10-11T06:44:02.726Z,22.83
2017-10-11T06:46:36.661Z,26.12
2017-10-11T06:49:10.560Z,30.85
2017-10-11T06:51:45.136Z,19.67
2017-10-11T06:54:19.100Z,30.40
2017-10-11T06:56:52.882Z,27.33
2017-10-11T06:59:27.138Z,59.72
2017-10-11T07:02:02.852Z,17.50
2017-10-11T07:04:37.618Z,22.75
2017-10-11T07:07:11.607Z,47.00
2017-10-11T07:09:45.620Z,21.17
2017-10-11T07:12:20.429Z,30.15
2017-10-11T07:14:54.436Z,28.35
2017-10-11T07:17:29.338Z,40.03
2017-10-11T07:20:03.507Z,28.85
2017-10-11T07:22:38.755Z,20.45
2017-10-11T07:25:12.731Z,30.83
2017-10-11T07:27:48.251Z,32.28
2017-10-11T07:30:23.548Z,36.65
2017-10-11T07:32:58.484Z,27.20
2017-10-11T07:35:33.177Z,13.60
2017-10-11T07:38:08.018Z,29.05
2017-10-11T07:40:43.274Z,22.25
2017-10-11T07:43:17.786Z,27.52
2017-10-11T07:45:51.729Z,31.87
2017-10-11T07:48:25.644Z,30.30
2017-10-11T07:50:59.635Z,28.12
2017-10-11T07:53:33.553Z,24.65
2017-10-11T07:56:07.365Z,61.45
2017-10-11T07:58:41.294Z,20.65
2017-10-11T08:01:15.167Z,77.00
2017-10-11T08:03:49.025Z,23.00
2017-10-11T08:06:22.932Z,5.75
2017-10-11T08:08:57.754Z,17.92
2017-10-11T08:11:31.521Z,14.73
2017-10-11T08:14:05.361Z,5.28
2017-10-11T08:16:39.361Z,5.85
2017-10-11T08:19:13.194Z,5.70
2017-10-11T08:21:47.092Z,10.43
2017-10-11T08:24:21.614Z,5.70
2017-10-11T08:26:55.540Z,4.57
2017-10-11T08:29:29.411Z,5.05
2017-10-11T08:32:03.246Z,3.35
2017-10-11T08:34:37.186Z,4.12
2017-10-11T08:37:11.685Z,2.95
2017-10-11T08:39:46.282Z,3.05
2017-10-11T08:42:20.934Z,2.62
2017-10-11T08:44:54.794Z,4.55
2017-10-11T08:47:29.413Z,4.53
2017-10-11T08:50:03.314Z,4.20
2017-10-11T08:52:37.267Z,6.45
2017-10-11T08:55:11.342Z,4.25
2017-10-11T08:57:45.649Z,3.83
2017-10-11T09:00:19.764Z,4.32
2017-10-11T09:02:53.886Z,5.30
2017-10-11T09:05:27.770Z,3.40
2017-10-11T09:08:01.964Z,6.82
2017-10-11T09:10:36.155Z,2.92
2017-10-11T09:13:10.056Z,5.93
2017-10-11T09:15:44.070Z,6.18
2017-10-11T09:18:19.286Z,6.22
2017-10-11T09:20:53.341Z,3.35
2017-10-11T09:23:27.556Z,4.00
2017-10-11T09:26:02.554Z,3.80
2017-10-11T09:28:37.798Z,2.60
2017-10-11T09:31:13.162Z,2.80
2017-10-11T09:33:47.515Z,4.00
2017-10-11T09:36:21.776Z,2.85
2017-10-11T09:38:56.518Z,5.12
2017-10-11T09:41:30.591Z,2.72
2017-10-11T09:44:04.671Z,3.10
2017-10-11T09:46:40.439Z,4.57
2017-10-11T09:49:14.395Z,1.87
2017-10-11T09:51:49.024Z,2.35
2017-10-11T09:54:23.107Z,4.85
2017-10-11T09:56:58.325Z,3.75
2017-10-11T09:59:33.224Z,4.20
2017-10-11T10:02:07.146Z,2.95
2017-10-11T10:04:40.830Z,2.62
2017-10-11T10:07:15.296Z,6.10
2017-10-11T10:09:49.450Z,2.05
2017-10-11T10:12:23.256Z,1.83
2017-10-11T10:14:57.974Z,4.35
2017-10-11T10:17:32.058Z,2.85
2017-10-11T10:20:06.338Z,1.60
2017-10-11T10:22:41.294Z,1.73
2017-10-11T10:25:15.428Z,1.50
2017-10-11T10:27:49.638Z,2.15
2017-10-11T10:30:23.891Z,2.15
2017-10-11T10:32:57.745Z,1.50
2017-10-11T10:35:32.618Z,1.40
2017-10-11T10:38:06.764Z,1.50
2017-10-11T10:40:41.341Z,1.95
2017-10-11T10:43:16.046Z,2.47
2017-10-11T10:45:51.912Z,1.40
2017-10-11T10:48:25.982Z,2.05
2017-10-11T10:51:00.297Z,4.45
2017-10-11T10:53:34.247Z,1.48
2017-10-11T10:56:08.185Z,2.70
2017-10-11T10:58:42.313Z,3.28
2017-10-11T11:01:16.147Z,1.83
2017-10-11T11:03:50.377Z,1.98
2017-10-11T11:06:24.623Z,1.60
2017-10-11T11:09:00.363Z,1.02
2017-10-11T11:11:34.298Z,2.03
2017-10-11T11:14:08.715Z,3.28
2017-10-11T11:16:43.686Z,1.90
2017-10-11T11:19:19.330Z,2.28
2017-10-11T11:21:54.184Z,1.70
2017-10-11T11:24:29.110Z,2.87
2017-10-11T11:27:03.740Z,4.82
2017-10-11T11:29:37.600Z,1.23
2017-10-11T11:32:11.624Z,1.50
2017-10-11T11:34:45.686Z,1.90
2017-10-11T11:37:19.647Z,2.85
2017-10-11T11:39:53.723Z,1.30
2017-10-11T11:42:27.820Z,1.75
2017-10-11T11:45:01.821Z,5.90
2017-10-11T11:47:35.652Z,1.90
2017-10-11T11:50:09.816Z,1.60
2017-10-11T11:52:43.885Z,2.92
2017-10-11T11:55:17.865Z,1.55
2017-10-11T11:57:51.648Z,1.50
2017-10-11T12:00:25.642Z,1.70
2017-10-11T12:02:59.802Z,1.60
2017-10-11T12:05:33.920Z,2.37
2017-10-11T12:08:08.687Z,2.45
2017-10-11T12:10:43.772Z,1.70
2017-10-11T12:13:17.511Z,3.50
2017-10-11T12:15:51.640Z,2.20
2017-10-11T12:18:26.310Z,1.98
2017-10-11T12:21:00.617Z,1.42
2017-10-11T12:23:34.687Z,3.45
2017-10-11T12:26:08.583Z,3.47
2017-10-11T12:28:42.900Z,2.28
2017-10-11T12:31:16.760Z,1.87
2017-10-11T12:33:50.671Z,3.45
2017-10-11T12:36:25.855Z,1.55
2017-10-11T12:38:59.703Z,1.75
2017-10-11T12:41:33.684Z,2.45
2017-10-11T12:44:07.717Z,1.80
2017-10-11T12:46:41.553Z,3.97
2017-10-11T12:49:15.615Z,2.85
2017-10-11T12:51:49.611Z,5.30
2017-10-11T12:54:24.369Z,2.25
2017-10-11T12:56:58.321Z,2.67
2017-10-11T12:59:32.180Z,1.55
2017-10-11T13:02:06.251Z,2.83
2017-10-11T13:04:40.403Z,1.50
2017-10-11T13:07:14.213Z,2.03
2017-10-11T13:09:49.119Z,1.60
2017-10-11T13:12:23.934Z,3.83
2017-10-11T13:14:57.839Z,3.87
2017-10-11T13:17:32.415Z,1.70
2017-10-11T13:20:06.280Z,2.00
2017-10-11T13:22:40.368Z,3.65
2017-10-11T13:25:14.628Z,7.35
2017-10-11T13:27:49.884Z,1.30
2017-10-11T13:30:24.098Z,1.58
2017-10-11T13:32:57.960Z,2.00
2017-10-11T13:35:32.071Z,1.67
2017-10-11T13:38:05.966Z,4.50
2017-10-11T13:40:40.886Z,3.03
2017-10-11T13:43:15.136Z,2.97
2017-10-11T13:45:50.024Z,1.45
2017-10-11T13:48:23.962Z,1.85
2017-10-11T13:50:58.009Z,3.00
2017-10-11T13:53:32.083Z,2.50
2017-10-11T13:56:06.410Z,5.12
2017-10-11T13:58:40.289Z,1.87
2017-10-11T14:01:14.580Z,1.67
2017-10-11T14:03:48.489Z,7.75
2017-10-11T14:06:22.728Z,1.40
2017-10-11T14:08:56.579Z,3.37
2017-10-11T14:11:31.226Z,3.03
2017-10-11T14:14:05.484Z,4.55
2017-10-11T14:16:39.786Z,3.30
2017-10-11T14:19:13.960Z,2.40
2017-10-11T14:21:49.281Z,2.83
2017-10-11T14:24:23.641Z,1.70
2017-10-11T14:26:57.528Z,2.67
2017-10-11T14:29:31.737Z,1.80
2017-10-11T14:32:06.735Z,2.50
2017-10-11T14:34:40.879Z,2.90
2017-10-11T14:37:14.929Z,1.60
2017-10-11T14:39:48.899Z,1.67
2017-10-11T14:42:22.736Z,2.05
2017-10-11T14:44:56.566Z,3.90
2017-10-11T14:47:31.290Z,4.35
2017-10-11T14:50:05.329Z,2.30
2017-10-11T14:52:40.193Z,1.90
2017-10-11T14:55:14.279Z,3.05
2017-10-11T14:57:48.362Z,3.17
2017-10-11T15:00:22.108Z,3.20
2017-10-11T15:02:57.411Z,2.65
2017-10-11T15:05:31.484Z,2.65
2017-10-11T15:08:05.431Z,3.35
2017-10-11T15:10:39.410Z,1.40
2017-10-11T15:13:13.857Z,1.55
2017-10-11T15:15:47.647Z,2.47
2017-10-11T15:18:22.265Z,1.40
2017-10-11T15:20:56.399Z,3.17
2017-10-11T15:23:30.336Z,2.45
2017-10-11T15:26:04.196Z,2.80
2017-10-11T15:28:39.052Z,5.18
2017-10-11T15:31:13.802Z,2.20
2017-10-11T15:33:47.690Z,1.65
2017-10-11T15:36:22.271Z,2.33
2017-10-11T15:38:56.237Z,2.65
2017-10-11T15:41:30.009Z,2.62
2017-10-11T15:44:03.787Z,3.03
2017-10-11T15:46:37.787Z,5.72
2017-10-11T15:49:11.719Z,3.58
2017-10-11T15:51:46.368Z,10.13
2017-10-11T15:54:20.347Z,2.03
2017-10-11T15:56:54.936Z,4.35
2017-10-11T15:59:29.506Z,3.40
2017-10-11T16:02:03.560Z,2.75
2017-10-11T16:04:37.612Z,3.15
2017-10-11T16:07:11.518Z,4.82
2017-10-11T16:09:45.331Z,2.20
2017-10-11T16:12:19.980Z,15.75
2017-10-11T16:14:54.135Z,25.20
2017-10-11T16:17:27.859Z,19.12
2017-10-11T16:20:01.692Z,18.20
2017-10-11T16:22:36.195Z,15.52
2017-10-11T16:25:10.224Z,11.73
2017-10-11T16:27:44.207Z,13.20
2017-10-11T16:30:18.197Z,9.77
2017-10-11T16:32:52.222Z,10.93
2017-10-11T16:35:27.365Z,6.65
2017-10-11T16:38:02.468Z,9.27
2017-10-11T16:40:36.810Z,8.68
2017-10-11T16:43:11.148Z,6.75
2017-10-11T16:45:45.436Z,8.15
2017-10-11T16:48:19.437Z,37.50
2017-10-11T16:50:53.420Z,58.72
2017-10-11T16:53:27.641Z,82.28
2017-10-11T16:56:01.662Z,49.10
2017-10-11T16:58:35.507Z,39.00
2017-10-11T17:01:11.214Z,25.58
2017-10-11T17:03:46.230Z,26.35
2017-10-11T17:06:20.286Z,23.77
2017-10-11T17:08:54.266Z,35.60
2017-10-11T17:11:29.960Z,56.30
2017-10-11T17:14:03.844Z,107.35
2017-10-11T17:16:37.744Z,109.45
2017-10-11T17:19:12.612Z,72.75
2017-10-11T17:21:46.736Z,50.97
2017-10-11T17:24:20.556Z,45.67
2017-10-11T17:26:54.418Z,30.08
2017-10-11T17:29:29.162Z,31.48
2017-10-11T17:32:03.721Z,50.75
2017-10-11T17:34:37.729Z,46.63
2017-10-11T17:37:11.775Z,62.05
2017-10-11T17:39:46.906Z,86.15
2017-10-11T17:42:21.668Z,171.95
2017-10-11T17:44:55.796Z,159.18
2017-10-11T17:47:29.976Z,139.05
2017-10-11T17:50:04.815Z,144.45
2017-10-11T17:52:39.417Z,184.65
2017-10-11T17:55:13.378Z,153.50
2017-10-11T17:57:47.578Z,100.75
2017-10-11T18:00:21.438Z,97.90
2017-10-11T18:02:55.206Z,63.53
2017-10-11T18:05:29.353Z,48.30
2017-10-11T18:08:03.113Z,42.65
2017-10-11T18:10:37.692Z,32.05
2017-10-11T18:13:11.543Z,28.73
2017-10-11T18:15:46.466Z,44.22
2017-10-11T18:18:20.898Z,40.95
2017-10-11T18:20:54.838Z,46.25
2017-10-11T18:23:29.092Z,30.92
2017-10-11T18:26:03.125Z,28.45
2017-10-11T18:28:36.987Z,23.92
2017-10-11T18:31:10.865Z,23.38
2017-10-11T18:33:44.969Z,24.12
2017-10-11T18:36:19.285Z,13.85
2017-10-11T18:38:53.117Z,12.73
2017-10-11T18:41:27.926Z,14.95
2017-10-11T18:44:01.876Z,11.18
2017-10-11T18:46:35.798Z,12.90
2017-10-11T18:49:09.627Z,11.65
2017-10-11T18:51:44.773Z,14.73
2017-10-11T18:54:18.924Z,17.37
2017-10-11T18:56:52.792Z,24.40
2017-10-11T18:59:27.370Z,19.67
2017-10-11T19:02:01.377Z,29.20
2017-10-11T19:04:35.250Z,21.17
2017-10-11T19:07:08.999Z,19.08
2017-10-11T19:09:42.712Z,18.12
2017-10-11T19:12:17.495Z,13.62
2017-10-11T19:14:51.604Z,11.45
2017-10-11T19:17:25.445Z,9.93
2017-10-11T19:19:59.304Z,9.38
2017-10-11T19:22:34.152Z,6.25
2017-10-11T19:25:08.044Z,14.48
2017-10-11T19:27:42.190Z,25.12
2017-10-11T19:30:15.907Z,14.13
2017-10-11T19:32:49.686Z,11.65
2017-10-11T19:35:23.473Z,25.55
2017-10-11T19:37:57.982Z,38.75
2017-10-11T19:40:32.143Z,24.30
2017-10-11T19:43:05.927Z,36.90
2017-10-11T19:45:40.723Z,22.85
2017-10-11T19:48:14.706Z,90.20
2017-10-11T19:50:50.184Z,82.30
2017-10-11T19:53:24.044Z,66.35
2017-10-11T19:55:57.881Z,62.55
2017-10-11T19:58:31.902Z,48.08
2017-10-11T20:01:05.786Z,47.33
2017-10-11T20:03:39.643Z,106.28
2017-10-11T20:06:14.810Z,67.10
2017-10-11T20:08:50.664Z,45.15
2017-10-11T20:11:24.610Z,51.92
2017-10-11T20:13:59.040Z,24.75
2017-10-11T20:16:32.740Z,38.00
2017-10-11T20:19:06.604Z,24.70
2017-10-11T20:21:40.369Z,45.92
2017-10-11T20:24:14.538Z,53.33
2017-10-11T20:26:48.615Z,38.47
2017-10-11T20:29:22.529Z,11.40
2017-10-11T20:31:57.020Z,17.02
2017-10-11T20:34:30.837Z,10.50
2017-10-11T20:37:04.664Z,12.30
2017-10-11T20:39:38.405Z,23.92
2017-10-11T20:42:12.281Z,18.10
2017-10-11T20:44:48.207Z,14.48
2017-10-11T20:47:22.103Z,17.40
2017-10-11T20:49:55.754Z,14.93
2017-10-11T20:52:29.769Z,12.05
2017-10-11T20:55:04.469Z,12.45
2017-10-11T20:57:38.667Z,12.82
2017-10-11T21:00:12.983Z,18.35
2017-10-11T21:02:46.996Z,27.92
2017-10-11T21:05:21.804Z,15.30
2017-10-11T21:07:55.708Z,12.45
2017-10-11T21:10:29.920Z,14.05
2017-10-11T21:13:03.861Z,11.07
2017-10-11T21:15:37.974Z,14.87
2017-10-11T21:18:12.663Z,29.30
2017-10-11T21:20:48.730Z,15.18
2017-10-11T21:23:22.718Z,14.30
2017-10-11T21:25:56.653Z,14.82
2017-10-11T21:28:31.131Z,10.82
2017-10-11T21:31:04.834Z,17.65
2017-10-11T21:33:38.467Z,15.45
2017-10-11T21:36:12.026Z,10.93
2017-10-11T21:38:45.603Z,11.40
2017-10-11T21:41:19.204Z,14.85
2017-10-11T21:43:52.802Z,8.10
2017-10-11T21:46:26.365Z,9.65
2017-10-11T21:49:00.838Z,14.45
2017-10-11T21:51:34.562Z,14.45
2017-10-11T21:54:08.974Z,17.80
2017-10-11T21:56:43.315Z,26.23
2017-10-11T21:59:17.019Z,16.40
2017-10-11T22:01:50.733Z,20.15
2017-10-11T22:04:24.381Z,11.20
2017-10-11T22:06:58.025Z,33.78
2017-10-11T22:09:31.610Z,11.30
2017-10-11T22:12:05.234Z,20.62
2017-10-11T22:14:38.814Z,8.77
2017-10-11T22:17:13.150Z,10.73
2017-10-11T22:19:47.423Z,7.28
2017-10-11T22:22:21.055Z,8.55
2017-10-11T22:24:54.902Z,7.25
2017-10-11T22:27:28.550Z,9.95
2017-10-11T22:30:02.068Z,7.53
2017-10-11T22:32:35.674Z,6.22
2017-10-11T22:35:09.262Z,6.97
2017-10-11T22:37:42.865Z,7.80
2017-10-11T22:40:16.453Z,7.53
2017-10-11T22:42:55.733Z,9.95
2017-10-11T22:45:30.087Z,9.40
2017-10-11T22:48:03.819Z,9.38
2017-10-11T22:50:37.367Z,7.30
2017-10-11T22:53:11.026Z,10.77
2017-10-11T22:55:44.794Z,5.10
2017-10-11T22:58:19.140Z,10.32
2017-10-11T23:00:53.538Z,5.93
2017-10-11T23:03:27.283Z,12.65
2017-10-11T23:06:00.820Z,5.75
2017-10-11T23:08:34.461Z,8.15
2017-10-11T23:11:08.029Z,6.30
2017-10-11T23:13:41.652Z,9.73
2017-10-11T23:16:15.250Z,5.25
2017-10-11T23:18:48.958Z,8.77
2017-10-11T23:21:22.526Z,10.18
2017-10-11T23:23:56.892Z,8.52
2017-10-11T23:26:31.377Z,8.40
2017-10-11T23:29:04.981Z,5.30
2017-10-11T23:31:38.500Z,14.20
2017-10-11T23:34:12.818Z,12.95
2017-10-11T23:36:46.297Z,8.60
2017-10-11T23:39:19.838Z,3.95
2017-10-11T23:41:53.404Z,5.15
2017-10-11T23:44:26.989Z,6.30
2017-10-11T23:47:00.728Z,7.03
2017-10-11T23:49:34.290Z,10.30
2017-10-11T23:52:07.926Z,19.87
2017-10-11T23:54:41.497Z,6.53
2017-10-11T23:57:15.088Z,6.03
2017-10-11T23:59:48.793Z,3.42
